Time;durP1;ratioP1;P1;durP2;ratioP2;P2;SDS_P1;SDS_P2;PMS_P1;PMS_P2;Temp;Humidity;BMP_temperature;BMP_pressure;BME280_temperature;BME280_humidity;BME280_pressure;Samples;Min_cycle;Max_cycle;Signal;HPM_P1;HPM_P2
2020/12/16 00:01:52;;;;;;;1.70;0.20;;;9.20;99.90;;;;;;5032649;28;20193;-65
2020/12/16 00:04:19;;;;;;;1.80;0.63;;;9.20;99.90;;;;;;5029083;28;20186;-62
2020/12/16 00:06:44;;;;;;;1.70;0.20;;;9.20;99.90;;;;;;5031637;28;20445;-65
2020/12/16 00:09:10;;;;;;;1.70;0.20;;;9.10;99.90;;;;;;5032685;28;20507;-65
2020/12/16 00:11:35;;;;;;;2.47;0.70;;;8.90;99.90;;;;;;5029744;28;20185;-64
2020/12/16 00:14:01;;;;;;;1.70;0.20;;;8.80;99.90;;;;;;5033302;28;20661;-65
2020/12/16 00:16:27;;;;;;;1.70;0.20;;;8.70;99.90;;;;;;5033798;28;20190;-65
2020/12/16 00:18:52;;;;;;;1.70;0.23;;;8.70;99.90;;;;;;5039906;28;20209;-65
2020/12/16 00:21:23;;;;;;;1.70;0.20;;;8.60;99.90;;;;;;5042194;28;20273;-65
2020/12/16 00:23:49;;;;;;;1.80;0.40;;;8.60;99.90;;;;;;5034805;28;20221;-65
2020/12/16 00:26:15;;;;;;;1.70;0.20;;;8.60;99.90;;;;;;5034490;28;20447;-65
2020/12/16 00:28:41;;;;;;;1.70;0.20;;;8.60;99.90;;;;;;5035370;28;20460;-65
2020/12/16 00:31:07;;;;;;;1.70;0.20;;;8.60;99.90;;;;;;5041277;28;20217;-65
2020/12/16 00:33:34;;;;;;;1.73;0.20;;;8.50;99.90;;;;;;5039388;28;20428;-65
2020/12/16 00:36:00;;;;;;;2.40;2.20;;;8.50;99.90;;;;;;5040346;28;21325;-65
2020/12/16 00:38:26;;;;;;;1.73;0.20;;;8.50;99.90;;;;;;5034772;28;20472;-65
2020/12/16 00:40:51;;;;;;;1.70;0.20;;;8.50;99.90;;;;;;5029723;28;20446;-66
2020/12/16 00:43:17;;;;;;;1.70;0.20;;;8.50;99.90;;;;;;5021759;28;20551;-65
2020/12/16 00:45:42;;;;;;;1.70;0.20;;;8.50;99.90;;;;;;5028249;28;20193;-63
2020/12/16 00:48:08;;;;;;;1.70;0.20;;;8.50;99.90;;;;;;5019865;28;20210;-63
2020/12/16 00:50:33;;;;;;;1.70;0.20;;;8.50;99.90;;;;;;5030174;28;20216;-63
2020/12/16 00:52:59;;;;;;;1.70;0.20;;;8.40;99.90;;;;;;5031728;28;20272;-63
2020/12/16 00:55:25;;;;;;;1.90;0.70;;;8.30;99.90;;;;;;5018242;28;20205;-63
2020/12/16 00:57:50;;;;;;;1.70;0.20;;;8.30;99.90;;;;;;5024227;28;20468;-64
2020/12/16 01:00:18;;;;;;;1.70;0.20;;;8.20;99.90;;;;;;5030655;28;20189;-64
2020/12/16 01:02:48;;;;;;;2.13;1.13;;;8.20;99.90;;;;;;5031528;28;20261;-63
2020/12/16 01:05:15;;;;;;;1.70;0.20;;;8.20;99.90;;;;;;5025632;28;20819;-64
2020/12/16 01:07:41;;;;;;;1.80;0.40;;;8.20;99.90;;;;;;5031352;28;21145;-63
2020/12/16 01:10:08;;;;;;;1.70;0.20;;;8.20;99.90;;;;;;5024543;28;20448;-63
2020/12/16 01:12:38;;;;;;;1.70;0.20;;;8.20;99.90;;;;;;5031408;28;20448;-63
2020/12/16 01:15:10;;;;;;;1.70;0.20;;;8.30;99.90;;;;;;5031569;28;20440;-64
2020/12/16 01:17:42;;;;;;;1.70;0.20;;;8.30;99.90;;;;;;5029854;28;20550;-63
2020/12/16 01:20:09;;;;;;;1.70;0.20;;;8.30;99.90;;;;;;5032411;28;20531;-64
2020/12/16 01:22:42;;;;;;;1.70;0.20;;;8.30;99.90;;;;;;5031664;28;20440;-63
2020/12/16 01:25:08;;;;;;;1.70;0.20;;;8.30;99.90;;;;;;5021580;28;20437;-63
2020/12/16 01:27:34;;;;;;;1.70;0.20;;;8.30;99.90;;;;;;5028745;28;20527;-65
2020/12/16 01:30:00;;;;;;;1.70;0.20;;;8.40;99.90;;;;;;5031712;28;20982;-64
2020/12/16 01:32:26;;;;;;;1.70;0.20;;;8.40;99.90;;;;;;5022966;28;20200;-64
2020/12/16 01:34:53;;;;;;;1.70;0.30;;;8.40;99.90;;;;;;5031356;28;20443;-63
2020/12/16 01:37:18;;;;;;;1.70;0.20;;;8.40;99.90;;;;;;5029001;28;20476;-63
2020/12/16 01:39:44;;;;;;;1.70;0.20;;;8.40;99.90;;;;;;5027275;28;20563;-64
2020/12/16 01:42:09;;;;;;;1.70;0.20;;;8.40;99.90;;;;;;5029680;28;20213;-64
2020/12/16 01:44:35;;;;;;;1.70;0.20;;;8.40;99.90;;;;;;5018837;28;20190;-63
2020/12/16 01:47:02;;;;;;;1.70;0.20;;;8.40;99.90;;;;;;5030498;28;20182;-63
2020/12/16 01:49:28;;;;;;;1.70;0.20;;;8.50;99.90;;;;;;5031239;28;20189;-64
2020/12/16 01:51:57;;;;;;;1.70;0.20;;;8.50;99.90;;;;;;5022312;28;20967;-64
2020/12/16 01:54:24;;;;;;;1.70;0.20;;;8.60;99.90;;;;;;5027489;28;20476;-64
2020/12/16 01:56:53;;;;;;;1.70;0.20;;;8.70;99.90;;;;;;5025331;28;20789;-63
2020/12/16 01:59:19;;;;;;;1.70;0.20;;;8.70;99.90;;;;;;5026253;28;20432;-63
2020/12/16 02:01:48;;;;;;;1.70;0.20;;;8.70;99.90;;;;;;5029781;28;20928;-63
2020/12/16 02:04:19;;;;;;;1.70;0.20;;;8.70;99.90;;;;;;5030690;28;20476;-63
2020/12/16 02:06:45;;;;;;;1.70;0.20;;;8.80;99.90;;;;;;5021253;28;20471;-64
2020/12/16 02:09:11;;;;;;;1.70;0.20;;;8.80;99.90;;;;;;5028292;28;20492;-63
2020/12/16 02:11:38;;;;;;;1.90;0.70;;;8.70;99.90;;;;;;5031426;28;20498;-64
2020/12/16 02:14:06;;;;;;;1.70;0.20;;;8.70;99.90;;;;;;5025867;28;20445;-63
2020/12/16 02:16:31;;;;;;;1.70;0.20;;;8.70;99.90;;;;;;5031642;28;20447;-64
2020/12/16 02:18:57;;;;;;;1.90;0.47;;;8.70;99.90;;;;;;5022703;28;20498;-64
2020/12/16 02:21:22;;;;;;;1.70;0.20;;;8.70;99.90;;;;;;5047496;28;20737;-65
2020/12/16 02:23:50;;;;;;;1.70;0.20;;;8.70;99.90;;;;;;5049042;28;20190;-68
2020/12/16 02:26:16;;;;;;;1.70;0.20;;;8.70;99.90;;;;;;5048176;28;20228;-66
2020/12/16 02:28:42;;;;;;;1.70;0.20;;;8.60;99.90;;;;;;5054313;28;20469;-64
2020/12/16 02:31:10;;;;;;;1.70;0.20;;;8.70;99.90;;;;;;5035719;28;20815;-64
2020/12/16 02:33:35;;;;;;;1.70;0.20;;;8.70;99.90;;;;;;5033672;28;20436;-63
2020/12/16 02:36:01;;;;;;;1.70;0.20;;;8.70;99.90;;;;;;5028376;28;20513;-64
2020/12/16 02:38:27;;;;;;;1.70;0.20;;;8.80;99.90;;;;;;5031136;28;20232;-64
2020/12/16 02:40:52;;;;;;;1.70;0.20;;;8.80;99.90;;;;;;5033603;28;20186;-63
2020/12/16 02:43:18;;;;;;;1.70;0.20;;;8.80;99.90;;;;;;5032518;28;20240;-63
2020/12/16 02:45:43;;;;;;;1.70;0.20;;;8.80;99.90;;;;;;5030806;28;20177;-64
2020/12/16 02:48:09;;;;;;;1.70;0.20;;;8.80;99.90;;;;;;5033181;28;20933;-63
2020/12/16 02:50:34;;;;;;;1.70;0.20;;;8.80;99.90;;;;;;5028868;28;20197;-64
2020/12/16 02:52:59;;;;;;;1.70;0.20;;;8.90;99.90;;;;;;5025054;28;20186;-64
2020/12/16 02:55:25;;;;;;;1.70;0.20;;;8.90;99.90;;;;;;5033991;28;20200;-64
2020/12/16 02:57:50;;;;;;;1.70;0.20;;;8.90;99.90;;;;;;5032708;28;20619;-63
2020/12/16 03:00:16;;;;;;;1.70;0.20;;;9.00;99.90;;;;;;5028733;28;20221;-63
2020/12/16 03:02:41;;;;;;;1.70;0.20;;;9.00;99.90;;;;;;5033145;28;20186;-64
2020/12/16 03:05:07;;;;;;;1.70;0.20;;;9.00;99.90;;;;;;5030178;28;20232;-64
2020/12/16 03:07:34;;;;;;;1.70;0.20;;;9.00;99.90;;;;;;5024333;28;20213;-64
2020/12/16 03:10:00;;;;;;;1.70;0.20;;;9.00;99.90;;;;;;5034238;28;20206;-64
2020/12/16 03:12:27;;;;;;;1.70;0.20;;;9.00;99.90;;;;;;5032843;28;20819;-64
2020/12/16 03:14:53;;;;;;;1.70;0.20;;;9.00;99.90;;;;;;5033397;28;20265;-63
2020/12/16 03:17:18;;;;;;;1.70;0.20;;;9.00;99.90;;;;;;5033400;28;20553;-64
2020/12/16 03:19:44;;;;;;;1.70;0.20;;;9.00;99.90;;;;;;5033377;28;20186;-64
2020/12/16 03:22:09;;;;;;;1.70;0.20;;;9.00;99.90;;;;;;5029397;28;20177;-63
2020/12/16 03:24:35;;;;;;;1.70;0.20;;;9.00;99.90;;;;;;5032818;28;20193;-63
2020/12/16 03:27:01;;;;;;;1.70;0.20;;;9.10;99.90;;;;;;5031713;28;20182;-63
2020/12/16 03:29:26;;;;;;;3.90;3.60;;;9.00;99.90;;;;;;5032686;28;20184;-64
2020/12/16 03:31:52;;;;;;;1.70;0.20;;;9.10;99.90;;;;;;5033847;28;20791;-63
2020/12/16 03:34:17;;;;;;;1.70;0.20;;;9.10;99.90;;;;;;5031711;28;20185;-64
2020/12/16 03:36:43;;;;;;;1.80;0.30;;;9.00;99.90;;;;;;5033294;28;20193;-64
2020/12/16 03:39:08;;;;;;;1.70;0.20;;;9.10;99.90;;;;;;5030861;28;20206;-63
2020/12/16 03:41:34;;;;;;;1.70;0.20;;;9.10;99.90;;;;;;5030489;28;20669;-63
2020/12/16 03:43:59;;;;;;;1.70;0.20;;;9.10;99.90;;;;;;5025898;28;20272;-64
2020/12/16 03:46:25;;;;;;;1.70;0.20;;;9.10;99.90;;;;;;5033277;28;20269;-64
2020/12/16 03:48:50;;;;;;;1.70;0.20;;;9.10;99.90;;;;;;5024444;28;20573;-64
2020/12/16 03:51:16;;;;;;;1.70;0.20;;;9.10;99.90;;;;;;5028387;28;20240;-64
2020/12/16 03:53:42;;;;;;;1.70;0.20;;;9.10;99.90;;;;;;5030535;28;20205;-64
2020/12/16 03:56:13;;;;;;;1.70;0.20;;;9.10;99.90;;;;;;5023689;28;20216;-64
2020/12/16 03:58:43;;;;;;;2.63;1.47;;;9.00;99.90;;;;;;5037047;28;20522;-64
2020/12/16 04:01:09;;;;;;;2.63;1.03;;;9.00;99.90;;;;;;5032718;28;20471;-64
2020/12/16 04:03:35;;;;;;;1.70;0.20;;;9.00;99.90;;;;;;5024401;28;20431;-64
2020/12/16 04:06:01;;;;;;;1.70;0.20;;;9.00;99.90;;;;;;5029583;28;20433;-64
2020/12/16 04:08:27;;;;;;;1.70;0.20;;;8.90;99.90;;;;;;5029967;28;20209;-64
2020/12/16 04:10:53;;;;;;;1.70;0.30;;;8.90;99.90;;;;;;5032336;28;20440;-63
2020/12/16 04:13:18;;;;;;;1.70;0.20;;;8.90;99.90;;;;;;5035004;28;20186;-64
2020/12/16 04:15:45;;;;;;;1.70;0.20;;;8.90;99.90;;;;;;5036894;28;20213;-64
2020/12/16 04:18:10;;;;;;;1.70;0.20;;;8.90;99.90;;;;;;5028883;28;20240;-64
2020/12/16 04:20:36;;;;;;;1.70;0.20;;;8.90;99.90;;;;;;5034960;28;20433;-64
2020/12/16 04:23:03;;;;;;;1.70;0.20;;;9.00;99.90;;;;;;5054930;23;20186;-59
2020/12/16 04:25:28;;;;;;;1.90;0.90;;;9.00;99.90;;;;;;5020555;28;20549;-58
2020/12/16 04:27:54;;;;;;;1.70;0.20;;;9.00;99.90;;;;;;5020697;28;20429;-59
2020/12/16 04:30:19;;;;;;;1.70;0.20;;;9.00;99.90;;;;;;5029322;28;20185;-59
2020/12/16 04:32:50;;;;;;;1.70;0.20;;;9.00;99.90;;;;;;5024970;28;20248;-59
2020/12/16 04:35:16;;;;;;;1.70;0.20;;;9.00;99.90;;;;;;5026169;28;20195;-58
2020/12/16 04:37:45;;;;;;;1.70;0.20;;;9.00;99.90;;;;;;5030406;28;20613;-58
2020/12/16 04:40:10;;;;;;;1.77;0.20;;;9.10;99.90;;;;;;5027294;28;20553;-58
2020/12/16 04:42:36;;;;;;;4.37;3.97;;;9.10;99.90;;;;;;5027883;28;20456;-57
2020/12/16 04:45:01;;;;;;;1.80;0.20;;;9.10;99.90;;;;;;5026997;28;20320;-57
2020/12/16 04:47:27;;;;;;;1.70;0.20;;;9.10;99.90;;;;;;5020002;28;20194;-59
2020/12/16 04:49:52;;;;;;;1.70;0.20;;;9.10;99.90;;;;;;5028318;28;20193;-58
2020/12/16 04:52:22;;;;;;;1.70;0.20;;;9.10;99.90;;;;;;5026148;28;20193;-59
2020/12/16 04:54:48;;;;;;;1.70;0.20;;;9.20;99.90;;;;;;5021959;28;20197;-59
2020/12/16 04:57:13;;;;;;;1.70;0.20;;;9.20;99.90;;;;;;5029579;28;20598;-58
2020/12/16 04:59:39;;;;;;;1.90;0.53;;;9.10;99.90;;;;;;5023754;28;20433;-58
2020/12/16 05:02:04;;;;;;;1.70;0.20;;;9.20;99.90;;;;;;5022372;28;20321;-58
2020/12/16 05:04:30;;;;;;;1.80;0.30;;;9.20;99.90;;;;;;5028737;28;20699;-59
2020/12/16 05:06:55;;;;;;;1.70;0.20;;;9.20;99.90;;;;;;5024914;28;20178;-59
2020/12/16 05:09:21;;;;;;;1.90;0.80;;;9.20;99.90;;;;;;5027439;28;20229;-59
2020/12/16 05:11:48;;;;;;;1.70;0.20;;;9.20;99.90;;;;;;5029636;28;20178;-57
2020/12/16 05:14:19;;;;;;;1.80;0.20;;;9.10;99.90;;;;;;5022009;28;20213;-58
2020/12/16 05:16:55;;;;;;;1.70;0.20;;;9.20;99.90;;;;;;5024086;28;20916;-58
2020/12/16 05:19:29;;;;;;;1.70;0.20;;;9.20;99.90;;;;;;5028752;28;20440;-57
2020/12/16 05:22:24;;;;;;;1.70;0.20;;;9.20;99.90;;;;;;5024091;28;20461;-58
2020/12/16 05:24:55;;;;;;;1.70;0.20;;;9.10;99.90;;;;;;5026989;28;20514;-57
2020/12/16 05:27:31;;;;;;;1.80;0.30;;;9.10;99.90;;;;;;5027897;28;20448;-59
2020/12/16 05:30:05;;;;;;;1.70;0.20;;;9.10;99.90;;;;;;5029628;28;20474;-59
2020/12/16 05:32:34;;;;;;;1.80;0.40;;;9.10;99.90;;;;;;5025983;28;21008;-58
2020/12/16 05:35:00;;;;;;;1.70;0.20;;;9.10;99.90;;;;;;5029395;28;20467;-58
2020/12/16 05:37:35;;;;;;;1.70;0.20;;;9.10;99.90;;;;;;5021056;28;20463;-58
2020/12/16 05:40:10;;;;;;;1.70;0.20;;;9.10;99.90;;;;;;5027679;28;20428;-59
2020/12/16 05:42:36;;;;;;;1.70;0.20;;;9.10;99.90;;;;;;5027291;28;20444;-59
2020/12/16 05:45:12;;;;;;;1.70;0.20;;;9.10;99.90;;;;;;5021514;28;20548;-58
2020/12/16 05:47:39;;;;;;;3.30;2.23;;;9.10;99.90;;;;;;5028757;28;20444;-58
2020/12/16 05:50:16;;;;;;;1.70;0.20;;;9.10;99.90;;;;;;5033197;28;20511;-58
2020/12/16 05:52:43;;;;;;;1.70;0.20;;;9.00;99.90;;;;;;5033102;28;20455;-58
2020/12/16 05:55:09;;;;;;;1.70;0.20;;;9.00;99.90;;;;;;5025825;28;20948;-60
2020/12/16 05:57:34;;;;;;;1.70;0.20;;;9.00;99.90;;;;;;5032323;28;20471;-58
2020/12/16 06:00:10;;;;;;;1.70;0.20;;;8.90;99.90;;;;;;5025758;28;20213;-59
2020/12/16 06:02:40;;;;;;;1.73;0.47;;;8.90;99.90;;;;;;5029311;28;20577;-59
2020/12/16 06:05:09;;;;;;;1.70;0.20;;;8.90;99.90;;;;;;5022746;28;20488;-61
2020/12/16 06:07:40;;;;;;;1.70;0.20;;;8.90;99.90;;;;;;5033656;28;20519;-58
2020/12/16 06:10:07;;;;;;;1.70;0.20;;;8.80;99.90;;;;;;5024500;28;21091;-60
2020/12/16 06:12:38;;;;;;;1.70;0.20;;;8.80;99.90;;;;;;5032320;28;20444;-58
2020/12/16 06:15:13;;;;;;;1.70;0.20;;;8.80;99.90;;;;;;5032968;28;20456;-58
2020/12/16 06:17:44;;;;;;;1.70;0.20;;;8.80;99.90;;;;;;5031314;28;20795;-57
2020/12/16 06:20:14;;;;;;;1.77;0.30;;;8.90;99.90;;;;;;5033630;28;20447;-58
2020/12/16 06:22:42;;;;;;;1.70;0.20;;;8.90;99.90;;;;;;5028950;28;20467;-57
2020/12/16 06:25:18;;;;;;;1.70;0.20;;;8.90;99.90;;;;;;5028985;28;20514;-58
2020/12/16 06:27:45;;;;;;;1.70;0.20;;;8.80;99.90;;;;;;5032656;28;20548;-58
2020/12/16 06:30:19;;;;;;;1.70;0.20;;;8.80;99.90;;;;;;5024360;28;20483;-58
2020/12/16 06:33:01;;;;;;;1.70;0.20;;;8.80;99.90;;;;;;5028498;28;20502;-59
2020/12/16 06:35:27;;;;;;;1.70;0.20;;;8.80;99.90;;;;;;5031345;28;20425;-58
2020/12/16 06:38:15;;;;;;;1.70;0.20;;;8.80;99.90;;;;;;5033618;28;20490;-58
2020/12/16 06:40:42;;;;;;;1.70;0.20;;;8.70;99.90;;;;;;5029481;28;20428;-58
2020/12/16 06:43:37;;;;;;;1.70;0.20;;;8.80;99.90;;;;;;5029814;28;20451;-59
2020/12/16 06:46:22;;;;;;;1.70;0.20;;;8.80;99.90;;;;;;5030389;28;20455;-58
2020/12/16 06:48:48;;;;;;;1.70;0.20;;;8.80;99.90;;;;;;5026488;28;20420;-57
2020/12/16 06:51:25;;;;;;;1.70;0.20;;;8.80;99.90;;;;;;5025945;28;20824;-59
2020/12/16 06:54:04;;;;;;;1.70;0.20;;;8.80;99.90;;;;;;5031975;28;20270;-59
2020/12/16 06:56:30;;;;;;;1.70;0.20;;;8.80;99.90;;;;;;5026397;28;20803;-59
2020/12/16 06:58:56;;;;;;;1.70;0.20;;;8.80;99.90;;;;;;5023673;28;20489;-59
2020/12/16 07:01:22;;;;;;;1.70;0.20;;;8.80;99.90;;;;;;5029497;28;21527;-60
2020/12/16 07:03:47;;;;;;;1.70;0.20;;;8.80;99.90;;;;;;5028829;28;20522;-58
2020/12/16 07:06:28;;;;;;;1.70;0.20;;;8.80;99.90;;;;;;5026758;28;20495;-58
2020/12/16 07:09:12;;;;;;;1.70;0.20;;;8.80;99.90;;;;;;5031516;28;20190;-60
2020/12/16 07:11:42;;;;;;;1.77;0.20;;;8.80;99.90;;;;;;5027814;28;20433;-58
2020/12/16 07:14:09;;;;;;;1.70;0.20;;;8.80;99.90;;;;;;5030760;28;20500;-59
2020/12/16 07:16:35;;;;;;;1.70;0.20;;;8.80;99.90;;;;;;5030633;28;20496;-60
2020/12/16 07:19:01;;;;;;;1.70;0.20;;;8.80;99.90;;;;;;5021758;28;20496;-59
2020/12/16 07:21:29;;;;;;;1.70;0.20;;;8.80;99.90;;;;;;5028631;28;20187;-59
2020/12/16 07:23:54;;;;;;;1.90;0.50;;;8.80;99.90;;;;;;5031241;28;20476;-59
2020/12/16 07:26:36;;;;;;;1.70;0.20;;;8.80;99.90;;;;;;5029454;28;20447;-59
2020/12/16 07:29:22;;;;;;;1.70;0.20;;;8.90;99.90;;;;;;5027863;28;20204;-60
2020/12/16 07:32:08;;;;;;;1.70;0.20;;;8.90;99.90;;;;;;5030781;28;20927;-58
2020/12/16 07:34:47;;;;;;;1.70;0.20;;;8.90;99.90;;;;;;5028546;28;20448;-59
2020/12/16 07:37:15;;;;;;;1.70;0.20;;;8.80;99.90;;;;;;5023095;28;20498;-58
2020/12/16 07:39:49;;;;;;;1.70;0.20;;;8.80;99.90;;;;;;5028533;28;20433;-59
2020/12/16 07:42:34;;;;;;;1.70;0.20;;;8.90;99.90;;;;;;5027201;28;20468;-59
2020/12/16 07:45:05;;;;;;;3.10;1.80;;;8.90;99.90;;;;;;5021982;28;20460;-59
2020/12/16 07:47:30;;;;;;;1.70;0.20;;;8.90;99.90;;;;;;5027670;28;20476;-59
2020/12/16 07:49:56;;;;;;;1.70;0.30;;;8.90;99.90;;;;;;5031589;28;20483;-59
2020/12/16 07:52:29;;;;;;;1.70;0.20;;;9.00;99.90;;;;;;5028312;28;20655;-57
2020/12/16 07:54:55;;;;;;;1.70;0.20;;;9.00;99.90;;;;;;5029197;28;20755;-59
2020/12/16 07:57:33;;;;;;;1.70;0.20;;;9.00;99.90;;;;;;5031184;28;20474;-59
2020/12/16 07:59:58;;;;;;;1.70;0.20;;;9.00;99.90;;;;;;5021443;28;20441;-59
2020/12/16 08:02:24;;;;;;;1.73;0.30;;;8.90;99.90;;;;;;5025649;28;20429;-57
2020/12/16 08:05:03;;;;;;;1.70;0.20;;;8.90;99.90;;;;;;5024646;28;20549;-58
2020/12/16 08:07:29;;;;;;;1.70;0.20;;;8.90;99.90;;;;;;5021436;28;20444;-58
2020/12/16 08:10:05;;;;;;;1.70;0.20;;;8.90;99.90;;;;;;5025933;28;20900;-58
2020/12/16 08:12:32;;;;;;;1.70;0.20;;;9.00;99.90;;;;;;5027863;28;20440;-58
2020/12/16 08:15:17;;;;;;;1.70;0.20;;;9.00;99.90;;;;;;5029239;28;20491;-57
2020/12/16 08:17:43;;;;;;;1.70;0.20;;;9.00;99.90;;;;;;5026180;28;20493;-58
2020/12/16 08:20:16;;;;;;;1.70;0.20;;;9.00;99.90;;;;;;5028289;28;20433;-58
2020/12/16 08:22:43;;;;;;;1.70;0.20;;;9.00;99.90;;;;;;5020867;28;20439;-57
2020/12/16 08:25:12;;;;;;;1.70;0.20;;;9.10;99.90;;;;;;5022209;28;20921;-59
2020/12/16 08:27:42;;;;;;;1.77;0.30;;;9.10;99.90;;;;;;5023875;28;20437;-57
2020/12/16 08:30:08;;;;;;;1.70;0.20;;;9.20;99.90;;;;;;5022262;28;20478;-57
2020/12/16 08:32:42;;;;;;;1.70;0.20;;;9.20;99.90;;;;;;5027446;28;21589;-57
2020/12/16 08:35:18;;;;;;;1.70;0.20;;;9.20;99.90;;;;;;5027239;28;20472;-58
2020/12/16 08:37:48;;;;;;;1.70;0.20;;;9.20;99.90;;;;;;5029012;28;20468;-58
2020/12/16 08:40:16;;;;;;;1.80;0.40;;;9.20;99.90;;;;;;5024903;28;20441;-58
2020/12/16 08:42:42;;;;;;;1.70;0.20;;;9.30;99.90;;;;;;5025639;28;20445;-59
2020/12/16 08:45:09;;;;;;;1.70;0.20;;;9.30;99.90;;;;;;5023246;28;20464;-59
2020/12/16 08:47:36;;;;;;;1.70;0.20;;;9.40;99.90;;;;;;5024943;28;20441;-58
2020/12/16 08:50:05;;;;;;;2.03;1.10;;;9.40;99.90;;;;;;5028739;28;20465;-57
2020/12/16 08:52:42;;;;;;;1.70;0.20;;;9.40;99.90;;;;;;5021334;28;20432;-58
2020/12/16 08:55:18;;;;;;;1.70;0.20;;;9.50;99.90;;;;;;5018809;28;20488;-58
2020/12/16 08:57:55;;;;;;;1.70;0.20;;;9.50;99.90;;;;;;5025787;28;20925;-58
2020/12/16 09:00:32;;;;;;;1.70;0.20;;;9.50;99.90;;;;;;5023830;28;21020;-58
2020/12/16 09:03:11;;;;;;;1.70;0.30;;;9.50;99.90;;;;;;5026316;28;20440;-58
2020/12/16 09:05:39;;;;;;;1.70;0.20;;;9.50;99.90;;;;;;5025118;28;20440;-59
2020/12/16 09:08:14;;;;;;;1.70;0.20;;;9.50;99.90;;;;;;5022102;28;20476;-59
2020/12/16 09:10:42;;;;;;;1.70;0.20;;;9.40;99.90;;;;;;5027349;28;21139;-59
2020/12/16 09:13:12;;;;;;;1.70;0.20;;;9.50;99.90;;;;;;5023236;28;21261;-59
2020/12/16 09:15:39;;;;;;;1.70;0.20;;;9.50;99.90;;;;;;5019420;28;21008;-59
2020/12/16 09:18:05;;;;;;;2.10;1.57;;;9.50;99.90;;;;;;5024579;28;20456;-59
2020/12/16 09:20:33;;;;;;;1.70;0.20;;;9.50;99.90;;;;;;5023321;28;20447;-59
2020/12/16 09:22:59;;;;;;;1.70;0.30;;;9.60;99.90;;;;;;5019751;28;20185;-58
2020/12/16 09:25:25;;;;;;;2.87;2.20;;;9.60;99.90;;;;;;5022216;28;20441;-56
2020/12/16 09:27:55;;;;;;;1.77;0.30;;;9.60;99.90;;;;;;5024848;28;20185;-57
2020/12/16 09:30:32;;;;;;;2.00;0.97;;;9.60;99.90;;;;;;5020019;28;20186;-58
2020/12/16 09:33:15;;;;;;;1.70;0.20;;;9.60;99.90;;;;;;5022419;28;20477;-58
2020/12/16 09:35:42;;;;;;;1.70;0.20;;;9.70;99.90;;;;;;5027136;28;20465;-58
2020/12/16 09:38:15;;;;;;;1.70;0.20;;;9.70;99.90;;;;;;5026541;28;20522;-59
2020/12/16 09:40:42;;;;;;;1.80;0.20;;;9.70;99.90;;;;;;5023193;28;20426;-58
2020/12/16 09:43:10;;;;;;;1.70;0.20;;;9.70;99.90;;;;;;5016990;28;20444;-58
2020/12/16 09:45:36;;;;;;;1.70;0.30;;;9.70;99.90;;;;;;5023042;28;20483;-57
2020/12/16 09:48:02;;;;;;;1.70;0.20;;;9.70;99.90;;;;;;5024184;28;20434;-58
2020/12/16 09:50:30;;;;;;;1.70;0.20;;;9.80;99.90;;;;;;5025274;28;20448;-59
2020/12/16 09:52:57;;;;;;;1.70;0.20;;;9.80;99.90;;;;;;5024062;28;20273;-58
2020/12/16 09:55:23;;;;;;;1.70;0.20;;;9.90;99.90;;;;;;5024983;28;20657;-58
2020/12/16 09:58:03;;;;;;;1.70;0.20;;;9.90;99.90;;;;;;5024551;28;20469;-58
2020/12/16 10:00:30;;;;;;;1.70;0.20;;;10.00;99.90;;;;;;5022569;28;20725;-58
2020/12/16 10:02:56;;;;;;;1.70;0.20;;;10.00;99.90;;;;;;5025613;28;20518;-58
2020/12/16 10:05:22;;;;;;;2.50;2.30;;;10.10;99.90;;;;;;5025402;28;20442;-58
2020/12/16 10:07:48;;;;;;;1.70;0.20;;;10.20;99.90;;;;;;5024718;28;20451;-60
2020/12/16 10:10:13;;;;;;;1.80;0.37;;;10.20;99.90;;;;;;5023152;28;20194;-58
2020/12/16 10:12:39;;;;;;;2.00;0.30;;;10.20;99.90;;;;;;5020101;28;20538;-57
2020/12/16 10:15:04;;;;;;;1.70;0.20;;;10.10;99.90;;;;;;5019120;28;20211;-58
2020/12/16 10:17:30;;;;;;;1.70;0.20;;;10.10;99.90;;;;;;5027721;28;20479;-59
2020/12/16 10:19:56;;;;;;;1.70;0.20;;;10.10;99.90;;;;;;5024879;28;20827;-58
2020/12/16 10:22:21;;;;;;;1.80;0.30;;;10.00;99.90;;;;;;5024038;28;20185;-58
2020/12/16 10:24:47;;;;;;;1.70;0.30;;;9.90;99.90;;;;;;5027731;28;20355;-58
2020/12/16 10:27:13;;;;;;;1.70;0.20;;;9.90;99.90;;;;;;5021554;28;20190;-58
2020/12/16 10:29:38;;;;;;;1.70;0.20;;;9.80;99.90;;;;;;5017798;28;20207;-58
2020/12/16 10:32:04;;;;;;;1.70;0.20;;;9.90;99.90;;;;;;5029754;28;20649;-58
2020/12/16 10:34:30;;;;;;;1.70;0.20;;;9.80;99.90;;;;;;5030684;28;20225;-58
2020/12/16 10:36:56;;;;;;;1.70;0.20;;;9.90;99.90;;;;;;5026960;28;20489;-58
2020/12/16 10:39:22;;;;;;;1.70;0.20;;;9.90;99.90;;;;;;5022867;28;20217;-58
2020/12/16 10:41:57;;;;;;;1.70;0.20;;;9.90;99.90;;;;;;5020879;28;20685;-58
2020/12/16 10:44:24;;;;;;;1.70;0.20;;;9.90;99.90;;;;;;5023678;28;20457;-58
2020/12/16 10:46:54;;;;;;;1.70;0.20;;;9.90;99.90;;;;;;5028480;28;20497;-57
2020/12/16 10:49:23;;;;;;;2.47;0.90;;;9.90;99.90;;;;;;5023407;28;20460;-58
2020/12/16 10:51:49;;;;;;;1.70;0.20;;;9.90;99.90;;;;;;5025759;28;20832;-58
2020/12/16 10:54:15;;;;;;;1.70;0.20;;;9.90;99.90;;;;;;5029418;28;20859;-57
2020/12/16 10:56:40;;;;;;;1.70;0.20;;;10.00;99.90;;;;;;5024118;28;20460;-57
2020/12/16 10:59:06;;;;;;;1.70;0.20;;;10.00;99.90;;;;;;5029723;28;20317;-57
2020/12/16 11:01:36;;;;;;;1.70;0.20;;;10.00;99.90;;;;;;5020981;28;20179;-57
2020/12/16 11:04:06;;;;;;;1.70;0.20;;;10.00;99.90;;;;;;5025846;28;20206;-58
2020/12/16 11:06:33;;;;;;;1.90;0.43;;;10.10;99.90;;;;;;5026973;28;20440;-58
2020/12/16 11:08:58;;;;;;;1.70;0.20;;;10.10;99.90;;;;;;5025637;28;20470;-58
2020/12/16 11:11:24;;;;;;;1.73;0.20;;;10.10;99.90;;;;;;5028238;28;20970;-59
2020/12/16 11:13:49;;;;;;;1.70;0.20;;;10.10;99.90;;;;;;5023873;28;20206;-58
2020/12/16 11:16:15;;;;;;;1.70;0.20;;;10.10;99.90;;;;;;5025360;28;20185;-57
2020/12/16 11:18:40;;;;;;;1.70;0.20;;;10.10;99.90;;;;;;5023892;28;20564;-58
2020/12/16 11:21:06;;;;;;;1.80;0.20;;;10.10;99.90;;;;;;5031378;28;20631;-58
2020/12/16 11:23:32;;;;;;;1.70;0.20;;;10.10;99.90;;;;;;5022696;28;20193;-59
2020/12/16 11:25:57;;;;;;;1.70;0.20;;;10.10;99.90;;;;;;5025374;28;20228;-59
2020/12/16 11:28:23;;;;;;;1.70;0.20;;;10.10;99.90;;;;;;5030155;28;20201;-58
2020/12/16 11:30:48;;;;;;;1.70;0.20;;;10.20;99.90;;;;;;5020899;28;20695;-58
2020/12/16 11:33:14;;;;;;;1.70;0.20;;;10.20;99.90;;;;;;5026191;28;20689;-58
2020/12/16 11:35:39;;;;;;;1.80;0.40;;;10.20;99.90;;;;;;5026270;28;20186;-57
2020/12/16 11:38:05;;;;;;;1.70;0.20;;;10.30;99.90;;;;;;5026912;28;20588;-57
2020/12/16 11:40:30;;;;;;;1.90;0.50;;;10.40;99.90;;;;;;5028901;28;20182;-57
2020/12/16 11:42:56;;;;;;;1.70;0.20;;;10.40;99.90;;;;;;5026493;28;20178;-57
2020/12/16 11:45:22;;;;;;;1.73;0.20;;;10.40;99.90;;;;;;5020305;28;20190;-58
2020/12/16 11:47:47;;;;;;;1.70;0.20;;;10.40;99.90;;;;;;5022061;28;20213;-56
2020/12/16 11:50:13;;;;;;;1.70;0.20;;;10.40;99.90;;;;;;5027439;28;20264;-56
2020/12/16 11:52:38;;;;;;;1.73;0.20;;;10.50;99.90;;;;;;5021808;28;20182;-57
2020/12/16 11:55:05;;;;;;;1.73;0.20;;;10.50;99.90;;;;;;5028457;28;20214;-56
2020/12/16 11:57:31;;;;;;;1.70;0.30;;;10.50;99.90;;;;;;5022176;28;20545;-56
2020/12/16 11:59:57;;;;;;;1.77;0.30;;;10.60;99.90;;;;;;5045205;22;20496;-65
2020/12/16 12:02:22;;;;;;;1.70;0.20;;;10.60;99.90;;;;;;5028040;28;20444;-65
2020/12/16 12:04:49;;;;;;;1.73;0.20;;;10.70;99.90;;;;;;5032472;28;20306;-64
2020/12/16 12:07:14;;;;;;;1.80;0.40;;;10.70;99.90;;;;;;5031272;28;20236;-65
2020/12/16 12:09:40;;;;;;;1.70;0.20;;;10.60;99.90;;;;;;5023021;28;20456;-65
2020/12/16 12:12:05;;;;;;;2.07;1.00;;;10.70;99.90;;;;;;5026897;28;20232;-65
2020/12/16 12:14:31;;;;;;;1.80;0.40;;;10.80;99.90;;;;;;5026158;28;20181;-65
2020/12/16 12:16:56;;;;;;;1.70;0.20;;;10.80;99.90;;;;;;5029495;28;20181;-65
2020/12/16 12:19:22;;;;;;;1.70;0.20;;;10.90;99.90;;;;;;5026326;28;20221;-65
2020/12/16 12:21:48;;;;;;;1.80;0.20;;;10.90;99.90;;;;;;5027455;28;20267;-65
2020/12/16 12:24:14;;;;;;;1.80;0.30;;;11.00;99.90;;;;;;5024600;28;20202;-65
2020/12/16 12:26:40;;;;;;;2.17;1.00;;;11.00;99.90;;;;;;5022259;28;20425;-65
2020/12/16 12:29:05;;;;;;;3.50;1.23;;;11.20;99.90;;;;;;5025862;28;20588;-65
2020/12/16 12:31:31;;;;;;;2.87;1.03;;;11.30;99.90;;;;;;5030198;28;20224;-64
2020/12/16 12:33:56;;;;;;;2.77;1.37;;;11.40;99.90;;;;;;5022981;28;20523;-65
2020/12/16 12:36:22;;;;;;;7.63;4.43;;;11.50;99.90;;;;;;5028280;28;20218;-64
2020/12/16 12:38:48;;;;;;;2.37;1.23;;;11.50;99.90;;;;;;5016887;28;20214;-65
2020/12/16 12:41:15;;;;;;;4.43;2.50;;;11.50;99.90;;;;;;5021479;28;20217;-64
2020/12/16 12:43:41;;;;;;;6.13;3.10;;;11.50;99.90;;;;;;5028203;28;20248;-64
2020/12/16 12:46:08;;;;;;;4.43;3.03;;;11.40;99.90;;;;;;5024393;28;20804;-64
2020/12/16 12:48:34;;;;;;;1.73;0.20;;;11.30;99.90;;;;;;5024080;28;20947;-64
2020/12/16 12:50:59;;;;;;;8.20;6.70;;;11.20;99.90;;;;;;5026654;28;20429;-65
2020/12/16 12:53:25;;;;;;;3.80;1.97;;;11.10;99.90;;;;;;5022286;28;20193;-65
2020/12/16 12:55:50;;;;;;;7.80;4.63;;;11.00;99.90;;;;;;5025260;28;20241;-64
2020/12/16 12:58:16;;;;;;;6.40;3.80;;;10.90;99.90;;;;;;5023971;28;20206;-64
2020/12/16 13:00:41;;;;;;;1.80;0.30;;;10.70;99.90;;;;;;5027001;28;20192;-64